sensor_id;sensor_type;location;lat;lon;timestamp;pressure;altitude;pressure_sealevel;temperature;humidity
70302;BME280;57706;56.326;43.882;2022-09-01T00:01:40;99743.41;;;14.17;67.77
70302;BME280;57706;56.326;43.882;2022-09-01T00:04:25;99738.31;;;14.15;67.52
70302;BME280;57706;56.326;43.882;2022-09-01T00:06:52;99739.53;;;14.20;67.44
70302;BME280;57706;56.326;43.882;2022-09-01T00:09:21;99744.41;;;14.02;68.14
70302;BME280;57706;56.326;43.882;2022-09-01T00:11:53;99742.34;;;13.91;68.14
70302;BME280;57706;56.326;43.882;2022-09-01T00:14:25;99756.16;;;13.93;68.22
70302;BME280;57706;56.326;43.882;2022-09-01T00:16:52;99759.19;;;13.90;68.08
70302;BME280;57706;56.326;43.882;2022-09-01T00:19:19;99758.56;;;13.81;68.49
70302;BME280;57706;56.326;43.882;2022-09-01T00:22:04;99757.75;;;13.81;68.19
70302;BME280;57706;56.326;43.882;2022-09-01T00:24:30;99767.09;;;13.76;68.34
70302;BME280;57706;56.326;43.882;2022-09-01T00:26:56;99758.94;;;13.71;68.46
70302;BME280;57706;56.326;43.882;2022-09-01T00:29:23;99766.59;;;13.53;68.91
70302;BME280;57706;56.326;43.882;2022-09-01T00:31:50;99774.97;;;13.63;68.21
70302;BME280;57706;56.326;43.882;2022-09-01T00:34:16;99774.00;;;13.77;67.40
70302;BME280;57706;56.326;43.882;2022-09-01T00:36:42;99767.09;;;13.76;67.01
70302;BME280;57706;56.326;43.882;2022-09-01T00:39:08;99782.94;;;13.76;66.84
70302;BME280;57706;56.326;43.882;2022-09-01T00:41:38;99779.69;;;13.74;66.96
70302;BME280;57706;56.326;43.882;2022-09-01T00:44:07;99792.69;;;13.76;66.63
70302;BME280;57706;56.326;43.882;2022-09-01T00:46:39;99785.78;;;13.82;66.71
70302;BME280;57706;56.326;43.882;2022-09-01T00:49:16;99788.06;;;13.98;66.26
70302;BME280;57706;56.326;43.882;2022-09-01T00:51:47;99784.03;;;14.02;66.08
70302;BME280;57706;56.326;43.882;2022-09-01T00:54:18;99783.78;;;13.97;66.32
70302;BME280;57706;56.326;43.882;2022-09-01T00:56:46;99783.78;;;13.97;66.44
70302;BME280;57706;56.326;43.882;2022-09-01T00:59:14;99787.25;;;13.98;66.48
70302;BME280;57706;56.326;43.882;2022-09-01T01:01:41;99792.75;;;13.96;66.64
70302;BME280;57706;56.326;43.882;2022-09-01T01:04:08;99788.25;;;13.90;66.73
70302;BME280;57706;56.326;43.882;2022-09-01T01:06:44;99786.19;;;13.85;67.04
70302;BME280;57706;56.326;43.882;2022-09-01T01:09:38;99778.44;;;13.70;67.72
70302;BME280;57706;56.326;43.882;2022-09-01T01:12:06;99779.66;;;13.68;67.78
70302;BME280;57706;56.326;43.882;2022-09-01T01:14:35;99771.94;;;13.66;68.13
70302;BME280;57706;56.326;43.882;2022-09-01T01:17:04;99773.91;;;13.51;68.66
70302;BME280;57706;56.326;43.882;2022-09-01T01:19:54;99777.63;;;13.28;70.19
70302;BME280;57706;56.326;43.882;2022-09-01T01:25:37;99776.28;;;13.03;71.35
70302;BME280;57706;56.326;43.882;2022-09-01T01:28:12;99774.41;;;12.97;71.61
70302;BME280;57706;56.326;43.882;2022-09-01T01:30:43;99772.81;;;13.03;70.96
70302;BME280;57706;56.326;43.882;2022-09-01T01:33:09;99779.72;;;13.04;70.78
70302;BME280;57706;56.326;43.882;2022-09-01T01:35:35;99776.78;;;12.85;71.64
70302;BME280;57706;56.326;43.882;2022-09-01T01:38:03;99777.53;;;12.79;72.15
70302;BME280;57706;56.326;43.882;2022-09-01T01:40:34;99772.28;;;12.86;71.82
70302;BME280;57706;56.326;43.882;2022-09-01T01:42:59;99784.44;;;12.80;71.93
70302;BME280;57706;56.326;43.882;2022-09-01T01:45:27;99777.94;;;12.76;72.13
70302;BME280;57706;56.326;43.882;2022-09-01T01:47:54;99781.28;;;12.91;71.59
70302;BME280;57706;56.326;43.882;2022-09-01T01:50:25;99778.25;;;12.66;72.30
70302;BME280;57706;56.326;43.882;2022-09-01T01:52:52;99782.09;;;12.63;72.61
70302;BME280;57706;56.326;43.882;2022-09-01T01:55:20;99783.28;;;12.61;72.64
70302;BME280;57706;56.326;43.882;2022-09-01T01:57:49;99791.25;;;12.68;72.29
70302;BME280;57706;56.326;43.882;2022-09-01T02:00:19;99792.41;;;12.58;72.16
70302;BME280;57706;56.326;43.882;2022-09-01T02:02:47;99787.88;;;12.52;72.47
70302;BME280;57706;56.326;43.882;2022-09-01T02:05:25;99784.72;;;12.63;72.33
70302;BME280;57706;56.326;43.882;2022-09-01T02:08:00;99794.34;;;12.49;72.62
70302;BME280;57706;56.326;43.882;2022-09-01T02:10:32;99797.94;;;12.42;72.93
70302;BME280;57706;56.326;43.882;2022-09-01T02:13:00;99800.94;;;12.38;72.83
70302;BME280;57706;56.326;43.882;2022-09-01T02:15:37;99797.28;;;12.39;73.10
70302;BME280;57706;56.326;43.882;2022-09-01T02:18:14;99800.44;;;12.28;73.65
70302;BME280;57706;56.326;43.882;2022-09-01T02:20:44;99796.34;;;12.25;73.55
70302;BME280;57706;56.326;43.882;2022-09-01T02:23:10;99795.91;;;12.44;73.57
70302;BME280;57706;56.326;43.882;2022-09-01T02:25:39;99794.41;;;12.34;73.58
70302;BME280;57706;56.326;43.882;2022-09-01T02:28:11;99797.06;;;12.34;73.81
70302;BME280;57706;56.326;43.882;2022-09-01T02:30:42;99795.78;;;12.30;73.79
70302;BME280;57706;56.326;43.882;2022-09-01T02:33:14;99793.78;;;12.32;73.78
70302;BME280;57706;56.326;43.882;2022-09-01T02:35:53;99799.16;;;12.46;72.99
70302;BME280;57706;56.326;43.882;2022-09-01T02:38:19;99789.06;;;12.71;71.99
70302;BME280;57706;56.326;43.882;2022-09-01T02:40:48;99794.91;;;12.66;72.36
70302;BME280;57706;56.326;43.882;2022-09-01T02:43:16;99796.38;;;12.76;71.98
70302;BME280;57706;56.326;43.882;2022-09-01T02:45:47;99801.00;;;12.74;72.04
70302;BME280;57706;56.326;43.882;2022-09-01T02:48:24;99797.41;;;12.75;72.06
70302;BME280;57706;56.326;43.882;2022-09-01T02:50:51;99798.38;;;12.74;71.80
70302;BME280;57706;56.326;43.882;2022-09-01T02:53:17;99793.94;;;12.74;71.46
70302;BME280;57706;56.326;43.882;2022-09-01T02:55:45;99800.50;;;12.85;71.41
70302;BME280;57706;56.326;43.882;2022-09-01T02:58:11;99808.31;;;12.72;71.53
70302;BME280;57706;56.326;43.882;2022-09-01T03:00:59;99801.41;;;12.71;71.59
70302;BME280;57706;56.326;43.882;2022-09-01T03:03:26;99805.44;;;12.66;71.66
70302;BME280;57706;56.326;43.882;2022-09-01T03:05:53;99814.19;;;12.74;71.28
70302;BME280;57706;56.326;43.882;2022-09-01T03:08:23;99816.47;;;12.77;71.19
70302;BME280;57706;56.326;43.882;2022-09-01T03:10:51;99815.28;;;12.79;70.80
70302;BME280;57706;56.326;43.882;2022-09-01T03:13:22;99827.88;;;12.84;70.59
70302;BME280;57706;56.326;43.882;2022-09-01T03:16:10;99825.88;;;12.86;70.63
70302;BME280;57706;56.326;43.882;2022-09-01T03:18:37;99836.88;;;12.97;70.00
70302;BME280;57706;56.326;43.882;2022-09-01T03:21:04;99818.28;;;13.05;69.71
70302;BME280;57706;56.326;43.882;2022-09-01T03:23:31;99828.66;;;13.06;69.25
70302;BME280;57706;56.326;43.882;2022-09-01T03:25:59;99828.78;;;12.98;69.72
70302;BME280;57706;56.326;43.882;2022-09-01T03:28:26;99824.97;;;13.01;69.21
70302;BME280;57706;56.326;43.882;2022-09-01T03:30:54;99834.06;;;12.98;69.45
70302;BME280;57706;56.326;43.882;2022-09-01T03:33:39;99823.78;;;13.03;69.08
70302;BME280;57706;56.326;43.882;2022-09-01T03:36:11;99824.84;;;13.16;68.54
70302;BME280;57706;56.326;43.882;2022-09-01T03:38:45;99829.94;;;13.17;68.25
70302;BME280;57706;56.326;43.882;2022-09-01T03:41:15;99842.34;;;13.24;67.48
70302;BME280;57706;56.326;43.882;2022-09-01T03:43:44;99829.38;;;13.29;67.11
70302;BME280;57706;56.326;43.882;2022-09-01T03:46:10;99833.13;;;13.41;64.79
70302;BME280;57706;56.326;43.882;2022-09-01T03:48:36;99834.75;;;13.42;64.61
70302;BME280;57706;56.326;43.882;2022-09-01T03:51:22;99831.88;;;13.37;64.00
70302;BME280;57706;56.326;43.882;2022-09-01T03:53:51;99826.50;;;13.24;64.02
70302;BME280;57706;56.326;43.882;2022-09-01T03:56:20;99835.94;;;13.33;62.77
70302;BME280;57706;56.326;43.882;2022-09-01T03:58:47;99836.22;;;13.16;63.26
70302;BME280;57706;56.326;43.882;2022-09-01T04:01:15;99836.28;;;13.30;63.31
70302;BME280;57706;56.326;43.882;2022-09-01T04:04:00;99836.22;;;13.16;62.70
70302;BME280;57706;56.326;43.882;2022-09-01T04:06:29;99834.66;;;13.29;62.06
70302;BME280;57706;56.326;43.882;2022-09-01T04:08:55;99848.00;;;13.20;62.02
70302;BME280;57706;56.326;43.882;2022-09-01T04:11:27;99854.16;;;13.28;61.61
70302;BME280;57706;56.326;43.882;2022-09-01T04:13:54;99841.94;;;13.20;61.55
70302;BME280;57706;56.326;43.882;2022-09-01T04:16:28;99865.88;;;13.18;61.55
70302;BME280;57706;56.326;43.882;2022-09-01T04:19:15;99846.84;;;13.30;60.85
70302;BME280;57706;56.326;43.882;2022-09-01T04:21:47;99838.72;;;13.25;60.57
70302;BME280;57706;56.326;43.882;2022-09-01T04:24:16;99841.94;;;13.20;61.17
70302;BME280;57706;56.326;43.882;2022-09-01T04:26:45;99843.00;;;13.32;60.52
70302;BME280;57706;56.326;43.882;2022-09-01T04:29:17;99840.78;;;13.29;60.63
70302;BME280;57706;56.326;43.882;2022-09-01T04:31:45;99839.25;;;13.48;60.27
70302;BME280;57706;56.326;43.882;2022-09-01T04:34:17;99846.84;;;13.65;59.53
70302;BME280;57706;56.326;43.882;2022-09-01T04:36:44;99842.66;;;13.71;59.49
70302;BME280;57706;56.326;43.882;2022-09-01T04:39:11;99846.84;;;13.65;59.11
70302;BME280;57706;56.326;43.882;2022-09-01T04:41:43;99849.75;;;13.70;59.23
70302;BME280;57706;56.326;43.882;2022-09-01T04:44:14;99851.97;;;13.73;59.12
70302;BME280;57706;56.326;43.882;2022-09-01T04:46:45;99847.09;;;13.70;58.42
70302;BME280;57706;56.326;43.882;2022-09-01T04:49:14;99852.78;;;13.67;58.11
70302;BME280;57706;56.326;43.882;2022-09-01T04:51:48;99861.94;;;13.71;57.54
70302;BME280;57706;56.326;43.882;2022-09-01T04:54:15;99856.66;;;13.71;57.45
70302;BME280;57706;56.326;43.882;2022-09-01T04:56:47;99864.56;;;13.71;56.73
70302;BME280;57706;56.326;43.882;2022-09-01T04:59:19;99879.31;;;13.94;56.02
70302;BME280;57706;56.326;43.882;2022-09-01T05:01:49;99856.31;;;13.88;55.43
70302;BME280;57706;56.326;43.882;2022-09-01T05:04:24;99858.50;;;13.77;55.91
70302;BME280;57706;56.326;43.882;2022-09-01T05:06:56;99868.66;;;13.81;55.88
70302;BME280;57706;56.326;43.882;2022-09-01T05:09:33;99867.91;;;13.94;55.33
70302;BME280;57706;56.326;43.882;2022-09-01T05:12:06;99867.00;;;13.66;56.01
70302;BME280;57706;56.326;43.882;2022-09-01T05:14:45;99875.56;;;13.82;56.09
70302;BME280;57706;56.326;43.882;2022-09-01T05:17:16;99859.84;;;14.09;55.07
70302;BME280;57706;56.326;43.882;2022-09-01T05:19:45;99867.47;;;14.52;53.57
70302;BME280;57706;56.326;43.882;2022-09-01T05:22:34;99882.75;;;14.70;52.46
70302;BME280;57706;56.326;43.882;2022-09-01T05:25:04;99875.44;;;14.79;51.58
70302;BME280;57706;56.326;43.882;2022-09-01T05:27:41;99875.88;;;14.96;51.02
70302;BME280;57706;56.326;43.882;2022-09-01T05:30:15;99871.34;;;15.31;50.23
70302;BME280;57706;56.326;43.882;2022-09-01T05:32:43;99875.00;;;15.23;50.02
70302;BME280;57706;56.326;43.882;2022-09-01T05:35:12;99886.44;;;14.76;51.33
70302;BME280;57706;56.326;43.882;2022-09-01T05:37:39;99876.63;;;14.70;51.62
70302;BME280;57706;56.326;43.882;2022-09-01T05:40:08;99889.44;;;14.59;51.75
70302;BME280;57706;56.326;43.882;2022-09-01T05:42:42;99881.47;;;14.46;52.00
70302;BME280;57706;56.326;43.882;2022-09-01T05:45:09;99884.34;;;14.44;52.37
70302;BME280;57706;56.326;43.882;2022-09-01T05:47:39;99887.66;;;14.73;52.38
70302;BME280;57706;56.326;43.882;2022-09-01T05:50:08;99880.75;;;14.93;51.40
70302;BME280;57706;56.326;43.882;2022-09-01T05:52:38;99886.03;;;14.93;49.90
70302;BME280;57706;56.326;43.882;2022-09-01T05:55:05;99886.03;;;15.06;50.27
70302;BME280;57706;56.326;43.882;2022-09-01T05:57:52;99880.31;;;15.23;49.88
70302;BME280;57706;56.326;43.882;2022-09-01T06:00:18;99889.88;;;15.31;48.24
70302;BME280;57706;56.326;43.882;2022-09-01T06:02:47;99889.28;;;15.22;48.15
70302;BME280;57706;56.326;43.882;2022-09-01T06:05:17;99886.63;;;15.35;47.86
70302;BME280;57706;56.326;43.882;2022-09-01T06:07:45;99893.72;;;15.48;47.54
70302;BME280;57706;56.326;43.882;2022-09-01T06:10:11;99891.28;;;15.40;47.79
70302;BME280;57706;56.326;43.882;2022-09-01T06:12:39;99894.56;;;15.35;48.47
70302;BME280;57706;56.326;43.882;2022-09-01T06:15:05;99890.66;;;15.58;48.49
70302;BME280;57706;56.326;43.882;2022-09-01T06:17:42;99899.41;;;15.65;47.41
70302;BME280;57706;56.326;43.882;2022-09-01T06:20:09;99884.66;;;15.83;47.14
70302;BME280;57706;56.326;43.882;2022-09-01T06:22:38;99880.47;;;16.14;46.03
70302;BME280;57706;56.326;43.882;2022-09-01T06:25:05;99871.41;;;16.61;45.50
70302;BME280;57706;56.326;43.882;2022-09-01T06:27:36;99871.38;;;16.93;44.02
70302;BME280;57706;56.326;43.882;2022-09-01T06:30:10;99880.53;;;17.23;43.92
70302;BME280;57706;56.326;43.882;2022-09-01T06:32:54;99888.75;;;17.58;43.12
70302;BME280;57706;56.326;43.882;2022-09-01T06:35:22;99880.97;;;19.34;39.24
70302;BME280;57706;56.326;43.882;2022-09-01T06:37:55;99873.88;;;24.34;30.58
70302;BME280;57706;56.326;43.882;2022-09-01T06:40:37;99874.28;;;27.97;25.17
70302;BME280;57706;56.326;43.882;2022-09-01T06:43:07;99862.44;;;27.93;24.99
70302;BME280;57706;56.326;43.882;2022-09-01T06:45:44;99871.31;;;29.69;23.13
70302;BME280;57706;56.326;43.882;2022-09-01T06:48:14;99884.56;;;32.45;20.01
70302;BME280;57706;56.326;43.882;2022-09-01T06:50:42;99886.31;;;27.86;24.32
70302;BME280;57706;56.326;43.882;2022-09-01T06:53:09;99874.31;;;29.25;22.80
70302;BME280;57706;56.326;43.882;2022-09-01T06:55:37;99883.75;;;29.70;22.42
70302;BME280;57706;56.326;43.882;2022-09-01T06:58:05;99880.84;;;30.26;21.36
70302;BME280;57706;56.326;43.882;2022-09-01T07:00:36;99866.97;;;31.80;20.17
70302;BME280;57706;56.326;43.882;2022-09-01T07:03:09;99882.63;;;32.54;19.21
70302;BME280;57706;56.326;43.882;2022-09-01T07:05:45;99876.56;;;32.39;19.82
70302;BME280;57706;56.326;43.882;2022-09-01T07:08:14;99874.28;;;31.36;20.85
70302;BME280;57706;56.326;43.882;2022-09-01T07:11:08;99876.66;;;33.17;18.48
70302;BME280;57706;56.326;43.882;2022-09-01T07:14:04;99865.97;;;35.77;16.70
70302;BME280;57706;56.326;43.882;2022-09-01T07:16:34;99883.66;;;37.37;15.26
70302;BME280;57706;56.326;43.882;2022-09-01T07:19:07;99876.72;;;33.30;18.31
70302;BME280;57706;56.326;43.882;2022-09-01T07:21:59;99877.13;;;31.30;19.77
70302;BME280;57706;56.326;43.882;2022-09-01T07:24:25;99891.78;;;29.47;21.82
70302;BME280;57706;56.326;43.882;2022-09-01T07:27:11;99881.31;;;27.30;24.11
70302;BME280;57706;56.326;43.882;2022-09-01T07:29:38;99866.13;;;29.30;22.38
70302;BME280;57706;56.326;43.882;2022-09-01T07:32:04;99879.13;;;27.57;24.85
70302;BME280;57706;56.326;43.882;2022-09-01T07:34:33;99880.25;;;25.32;27.43
70302;BME280;57706;56.326;43.882;2022-09-01T07:37:02;99871.56;;;23.63;30.04
70302;BME280;57706;56.326;43.882;2022-09-01T07:39:29;99888.53;;;22.00;32.36
70302;BME280;57706;56.326;43.882;2022-09-01T07:42:31;99869.16;;;26.79;25.37
70302;BME280;57706;56.326;43.882;2022-09-01T07:45:16;99868.69;;;30.37;21.28
70302;BME280;57706;56.326;43.882;2022-09-01T07:47:52;99859.31;;;35.62;16.95
70302;BME280;57706;56.326;43.882;2022-09-01T07:50:18;99881.59;;;37.50;14.81
70302;BME280;57706;56.326;43.882;2022-09-01T07:52:45;99876.03;;;34.73;16.77
70302;BME280;57706;56.326;43.882;2022-09-01T07:55:15;99875.91;;;35.44;16.02
70302;BME280;57706;56.326;43.882;2022-09-01T07:57:42;99869.09;;;38.08;14.29
70302;BME280;57706;56.326;43.882;2022-09-01T08:00:13;99871.47;;;35.52;16.09
70302;BME280;57706;56.326;43.882;2022-09-01T08:02:41;99871.72;;;37.45;14.66
70302;BME280;57706;56.326;43.882;2022-09-01T08:05:14;99860.09;;;40.79;11.89
70302;BME280;57706;56.326;43.882;2022-09-01T08:07:43;99848.78;;;39.67;12.82
70302;BME280;57706;56.326;43.882;2022-09-01T08:10:12;99853.63;;;38.19;13.64
70302;BME280;57706;56.326;43.882;2022-09-01T08:12:39;99849.53;;;37.70;13.87
70302;BME280;57706;56.326;43.882;2022-09-01T08:15:06;99874.59;;;39.28;12.83
70302;BME280;57706;56.326;43.882;2022-09-01T08:17:35;99850.78;;;36.36;14.96
70302;BME280;57706;56.326;43.882;2022-09-01T08:20:05;99853.22;;;37.22;14.55
70302;BME280;57706;56.326;43.882;2022-09-01T08:23:04;99847.44;;;39.54;12.53
70302;BME280;57706;56.326;43.882;2022-09-01T08:25:35;99867.00;;;38.94;13.05
70302;BME280;57706;56.326;43.882;2022-09-01T08:28:02;99850.69;;;37.49;14.31
70302;BME280;57706;56.326;43.882;2022-09-01T08:30:29;99850.31;;;39.34;13.10
70302;BME280;57706;56.326;43.882;2022-09-01T08:32:58;99842.63;;;40.60;12.13
70302;BME280;57706;56.326;43.882;2022-09-01T08:35:26;99842.00;;;40.82;12.03
70302;BME280;57706;56.326;43.882;2022-09-01T08:37:56;99849.00;;;40.23;12.36
70302;BME280;57706;56.326;43.882;2022-09-01T08:40:24;99850.13;;;40.22;12.41
70302;BME280;57706;56.326;43.882;2022-09-01T08:45:57;99845.50;;;41.35;11.21
70302;BME280;57706;56.326;43.882;2022-09-01T08:48:37;99842.31;;;41.36;11.90
70302;BME280;57706;56.326;43.882;2022-09-01T08:51:38;99830.59;;;39.24;12.53
70302;BME280;57706;56.326;43.882;2022-09-01T08:56:43;99854.97;;;41.45;10.84
70302;BME280;57706;56.326;43.882;2022-09-01T08:59:29;99837.97;;;39.20;12.75
70302;BME280;57706;56.326;43.882;2022-09-01T09:02:14;99840.41;;;39.90;12.29
70302;BME280;57706;56.326;43.882;2022-09-01T09:04:56;99841.97;;;38.73;12.90
70302;BME280;57706;56.326;43.882;2022-09-01T09:10:26;99838.09;;;38.27;13.51
70302;BME280;57706;56.326;43.882;2022-09-01T09:18:51;99841.28;;;39.33;12.54
70302;BME280;57706;56.326;43.882;2022-09-01T09:21:35;99841.19;;;37.63;13.92
70302;BME280;57706;56.326;43.882;2022-09-01T09:24:05;99843.25;;;32.60;18.27
70302;BME280;57706;56.326;43.882;2022-09-01T09:26:34;99841.53;;;33.55;17.46
70302;BME280;57706;56.326;43.882;2022-09-01T09:28:59;99823.47;;;35.38;15.77
70302;BME280;57706;56.326;43.882;2022-09-01T09:31:37;99847.88;;;38.98;13.17
70302;BME280;57706;56.326;43.882;2022-09-01T09:34:28;99826.28;;;31.04;19.94
70302;BME280;57706;56.326;43.882;2022-09-01T09:36:54;99829.09;;;28.22;23.26
70302;BME280;57706;56.326;43.882;2022-09-01T09:39:20;99837.72;;;26.69;25.20
70302;BME280;57706;56.326;43.882;2022-09-01T09:42:04;99845.91;;;27.81;23.59
70302;BME280;57706;56.326;43.882;2022-09-01T09:44:40;99841.75;;;32.15;18.37
70302;BME280;57706;56.326;43.882;2022-09-01T09:47:09;99832.63;;;29.54;21.31
70302;BME280;57706;56.326;43.882;2022-09-01T09:49:35;99829.78;;;27.32;24.11
70302;BME280;57706;56.326;43.882;2022-09-01T09:55:17;99839.31;;;31.69;19.78
70302;BME280;57706;56.326;43.882;2022-09-01T09:57:43;99849.56;;;35.77;16.15
70302;BME280;57706;56.326;43.882;2022-09-01T10:02:42;99835.22;;;29.59;21.33
70302;BME280;57706;56.326;43.882;2022-09-01T10:05:34;99827.22;;;28.70;22.45
70302;BME280;57706;56.326;43.882;2022-09-01T10:08:00;99828.25;;;28.41;22.92
70302;BME280;57706;56.326;43.882;2022-09-01T10:10:37;99828.81;;;25.99;26.17
70302;BME280;57706;56.326;43.882;2022-09-01T10:13:08;99831.97;;;24.43;28.72
70302;BME280;57706;56.326;43.882;2022-09-01T10:15:35;99842.09;;;23.20;30.34
70302;BME280;57706;56.326;43.882;2022-09-01T10:18:07;99839.88;;;27.21;25.06
70302;BME280;57706;56.326;43.882;2022-09-01T10:20:37;99834.19;;;26.04;26.03
70302;BME280;57706;56.326;43.882;2022-09-01T10:23:04;99836.91;;;31.50;19.64
70302;BME280;57706;56.326;43.882;2022-09-01T10:25:33;99831.69;;;34.89;16.31
70302;BME280;57706;56.326;43.882;2022-09-01T10:28:11;99851.28;;;29.27;21.47
70302;BME280;57706;56.326;43.882;2022-09-01T10:30:41;99836.50;;;26.80;24.59
70302;BME280;57706;56.326;43.882;2022-09-01T10:33:09;99842.69;;;25.06;26.31
70302;BME280;57706;56.326;43.882;2022-09-01T10:35:39;99841.88;;;26.56;25.17
70302;BME280;57706;56.326;43.882;2022-09-01T10:38:18;99834.06;;;31.73;19.38
70302;BME280;57706;56.326;43.882;2022-09-01T10:40:47;99844.25;;;28.84;22.10
70302;BME280;57706;56.326;43.882;2022-09-01T10:43:47;99834.94;;;27.72;23.82
70302;BME280;57706;56.326;43.882;2022-09-01T10:48:50;99842.41;;;27.61;23.46
70302;BME280;57706;56.326;43.882;2022-09-01T10:53:47;99845.41;;;24.74;27.64
70302;BME280;57706;56.326;43.882;2022-09-01T10:56:16;99839.06;;;29.30;21.55
70302;BME280;57706;56.326;43.882;2022-09-01T10:58:59;99844.16;;;33.85;17.00
70302;BME280;57706;56.326;43.882;2022-09-01T11:04:18;99834.66;;;29.48;21.48
70302;BME280;57706;56.326;43.882;2022-09-01T11:10:05;99858.66;;;25.58;26.27
70302;BME280;57706;56.326;43.882;2022-09-01T11:15:32;99846.84;;;32.17;19.37
70302;BME280;57706;56.326;43.882;2022-09-01T11:23:11;99850.13;;;27.87;22.46
70302;BME280;57706;56.326;43.882;2022-09-01T11:25:43;99850.34;;;32.44;17.80
70302;BME280;57706;56.326;43.882;2022-09-01T11:30:58;99838.25;;;29.44;20.82
70302;BME280;57706;56.326;43.882;2022-09-01T11:44:27;99842.50;;;39.05;12.30
70302;BME280;57706;56.326;43.882;2022-09-01T11:47:01;99848.16;;;37.60;12.93
70302;BME280;57706;56.326;43.882;2022-09-01T11:49:33;99837.25;;;39.88;11.57
70302;BME280;57706;56.326;43.882;2022-09-01T11:51:59;99860.38;;;35.20;14.64
70302;BME280;57706;56.326;43.882;2022-09-01T11:54:28;99845.41;;;30.99;18.11
70302;BME280;57706;56.326;43.882;2022-09-01T11:57:37;99859.63;;;28.23;20.83
70302;BME280;57706;56.326;43.882;2022-09-01T12:00:09;99846.59;;;26.70;23.15
70302;BME280;57706;56.326;43.882;2022-09-01T12:02:45;99864.56;;;27.09;22.87
70302;BME280;57706;56.326;43.882;2022-09-01T12:05:37;99858.25;;;26.30;23.56
70302;BME280;57706;56.326;43.882;2022-09-01T12:08:15;99865.78;;;25.12;25.21
70302;BME280;57706;56.326;43.882;2022-09-01T12:10:45;99872.56;;;25.75;24.46
70302;BME280;57706;56.326;43.882;2022-09-01T12:13:30;99869.81;;;28.45;21.51
70302;BME280;57706;56.326;43.882;2022-09-01T12:16:02;99856.19;;;26.81;23.37
70302;BME280;57706;56.326;43.882;2022-09-01T12:18:31;99860.91;;;25.24;25.47
70302;BME280;57706;56.326;43.882;2022-09-01T12:20:58;99863.97;;;23.50;27.84
70302;BME280;57706;56.326;43.882;2022-09-01T12:23:27;99867.81;;;23.64;28.29
70302;BME280;57706;56.326;43.882;2022-09-01T12:25:59;99865.63;;;25.64;25.51
70302;BME280;57706;56.326;43.882;2022-09-01T12:28:27;99865.19;;;25.25;26.04
70302;BME280;57706;56.326;43.882;2022-09-01T12:30:58;99861.16;;;25.33;26.74
70302;BME280;57706;56.326;43.882;2022-09-01T12:33:25;99863.44;;;31.04;19.62
70302;BME280;57706;56.326;43.882;2022-09-01T12:35:51;99855.06;;;34.06;17.00
70302;BME280;57706;56.326;43.882;2022-09-01T12:40:44;99854.47;;;38.47;12.68
70302;BME280;57706;56.326;43.882;2022-09-01T12:43:10;99841.44;;;35.39;14.00
70302;BME280;57706;56.326;43.882;2022-09-01T12:45:39;99865.28;;;36.08;13.62
70302;BME280;57706;56.326;43.882;2022-09-01T12:48:05;99850.09;;;35.41;14.22
70302;BME280;57706;56.326;43.882;2022-09-01T12:50:34;99862.66;;;32.98;15.87
70302;BME280;57706;56.326;43.882;2022-09-01T12:53:02;99858.78;;;29.59;19.21
70302;BME280;57706;56.326;43.882;2022-09-01T12:55:31;99874.78;;;31.06;18.13
70302;BME280;57706;56.326;43.882;2022-09-01T12:58:00;99885.53;;;31.96;16.65
70302;BME280;57706;56.326;43.882;2022-09-01T13:00:30;99864.56;;;31.52;17.26
70302;BME280;57706;56.326;43.882;2022-09-01T13:03:15;99879.84;;;25.69;23.26
70302;BME280;57706;56.326;43.882;2022-09-01T13:05:44;99875.53;;;23.50;27.03
70302;BME280;57706;56.326;43.882;2022-09-01T13:08:15;99883.63;;;21.92;28.85
70302;BME280;57706;56.326;43.882;2022-09-01T13:13:14;99878.03;;;25.54;24.57
70302;BME280;57706;56.326;43.882;2022-09-01T13:15:45;99883.97;;;29.03;21.11
70302;BME280;57706;56.326;43.882;2022-09-01T13:18:13;99878.66;;;32.90;17.07
70302;BME280;57706;56.326;43.882;2022-09-01T13:20:40;99872.41;;;34.81;15.24
70302;BME280;57706;56.326;43.882;2022-09-01T13:23:07;99886.47;;;30.29;18.75
70302;BME280;57706;56.326;43.882;2022-09-01T13:25:33;99889.09;;;26.48;22.53
70302;BME280;57706;56.326;43.882;2022-09-01T13:28:01;99894.66;;;23.75;26.19
70302;BME280;57706;56.326;43.882;2022-09-01T13:30:28;99883.41;;;22.21;28.62
70302;BME280;57706;56.326;43.882;2022-09-01T13:32:55;99889.31;;;21.34;30.16
70302;BME280;57706;56.326;43.882;2022-09-01T13:35:22;99881.03;;;22.52;28.66
70302;BME280;57706;56.326;43.882;2022-09-01T13:37:49;99880.31;;;23.00;28.16
70302;BME280;57706;56.326;43.882;2022-09-01T13:40:33;99889.22;;;23.54;27.32
70302;BME280;57706;56.326;43.882;2022-09-01T13:42:59;99895.13;;;24.67;26.07
70302;BME280;57706;56.326;43.882;2022-09-01T13:45:26;99889.84;;;25.59;24.17
70302;BME280;57706;56.326;43.882;2022-09-01T13:47:52;99878.91;;;28.96;20.83
70302;BME280;57706;56.326;43.882;2022-09-01T13:50:21;99885.03;;;30.55;19.19
70302;BME280;57706;56.326;43.882;2022-09-01T13:52:51;99883.81;;;31.24;18.37
70302;BME280;57706;56.326;43.882;2022-09-01T13:55:20;99884.41;;;30.58;18.39
70302;BME280;57706;56.326;43.882;2022-09-01T13:57:47;99895.53;;;30.47;18.70
70302;BME280;57706;56.326;43.882;2022-09-01T14:00:16;99884.50;;;29.84;19.06
70302;BME280;57706;56.326;43.882;2022-09-01T14:02:46;99909.25;;;25.40;24.31
70302;BME280;57706;56.326;43.882;2022-09-01T14:05:14;99900.06;;;22.56;27.96
70302;BME280;57706;56.326;43.882;2022-09-01T14:07:40;99909.38;;;22.81;27.93
70302;BME280;57706;56.326;43.882;2022-09-01T14:10:06;99902.56;;;22.68;28.11
70302;BME280;57706;56.326;43.882;2022-09-01T14:12:33;99901.34;;;21.14;30.42
70302;BME280;57706;56.326;43.882;2022-09-01T14:14:59;99909.31;;;20.17;32.14